createdAt,value
2017-12-22T00:00:45.798Z,6.30
2017-12-22T00:03:14.524Z,6.30
2017-12-22T00:05:47.305Z,6.30
2017-12-22T00:08:16.783Z,6.30
2017-12-22T00:10:44.823Z,6.30
2017-12-22T00:13:13.500Z,6.30
2017-12-22T00:15:47.540Z,6.30
2017-12-22T00:18:16.234Z,6.20
2017-12-22T00:20:44.611Z,6.20
2017-12-22T00:23:12.653Z,6.20
2017-12-22T00:25:40.691Z,6.20
2017-12-22T00:28:09.494Z,6.20
2017-12-22T00:30:38.481Z,6.20
2017-12-22T00:33:08.003Z,6.20
2017-12-22T00:35:37.384Z,6.20
2017-12-22T00:38:06.149Z,6.20
2017-12-22T00:40:34.230Z,6.20
2017-12-22T00:43:03.354Z,6.20
2017-12-22T00:45:31.703Z,6.20
2017-12-22T00:48:00.406Z,6.20
2017-12-22T00:50:29.884Z,6.30
2017-12-22T00:52:58.591Z,6.30
2017-12-22T00:55:28.965Z,6.20
2017-12-22T00:57:57.771Z,6.20
2017-12-22T01:00:26.487Z,6.20
2017-12-22T01:02:54.916Z,6.20
2017-12-22T01:05:23.617Z,6.20
2017-12-22T01:07:52.305Z,6.20
2017-12-22T01:10:21.043Z,6.20
2017-12-22T01:12:50.494Z,6.30
2017-12-22T01:15:25.656Z,6.20
2017-12-22T01:18:00.556Z,6.20
2017-12-22T01:20:29.262Z,6.30
2017-12-22T01:22:58.362Z,6.30
2017-12-22T01:25:27.078Z,6.30
2017-12-22T01:27:56.542Z,6.40
2017-12-22T01:30:25.242Z,6.40
2017-12-22T01:32:53.929Z,6.40
2017-12-22T01:35:22.649Z,6.40
2017-12-22T01:37:51.330Z,6.50
2017-12-22T01:40:20.031Z,6.50
2017-12-22T01:42:49.480Z,6.30
2017-12-22T01:45:18.170Z,6.30
2017-12-22T01:47:46.880Z,6.30
2017-12-22T01:50:15.239Z,6.40
2017-12-22T01:52:43.936Z,6.40
2017-12-22T01:55:12.650Z,6.50
2017-12-22T01:57:41.368Z,6.50
2017-12-22T02:00:10.075Z,6.50
2017-12-22T02:02:38.747Z,6.60
2017-12-22T02:05:07.458Z,6.60
2017-12-22T02:07:36.150Z,6.50
2017-12-22T02:10:04.507Z,6.50
2017-12-22T02:12:33.226Z,6.50
2017-12-22T02:15:01.906Z,6.50
2017-12-22T02:17:30.622Z,6.60
2017-12-22T02:19:59.564Z,6.60
2017-12-22T02:22:28.253Z,6.60
2017-12-22T02:24:57.982Z,6.60
2017-12-22T02:27:26.735Z,6.60
2017-12-22T02:29:55.565Z,6.60
2017-12-22T02:32:24.335Z,6.60
2017-12-22T02:34:54.816Z,6.60
2017-12-22T02:37:24.305Z,6.60
2017-12-22T02:39:52.992Z,6.60
2017-12-22T02:42:21.714Z,6.60
2017-12-22T02:44:51.180Z,6.60
2017-12-22T02:47:19.865Z,6.60
2017-12-22T02:49:49.414Z,6.60
2017-12-22T02:52:18.116Z,6.70
2017-12-22T02:54:46.850Z,6.60
2017-12-22T02:57:16.223Z,6.70
2017-12-22T02:59:45.852Z,6.70
2017-12-22T03:02:14.575Z,6.70
2017-12-22T03:04:44.047Z,6.70
2017-12-22T03:11:41.420Z,6.70
2017-12-22T03:14:10.127Z,6.70
2017-12-22T03:16:38.869Z,6.70
2017-12-22T03:19:07.591Z,6.80
2017-12-22T03:21:36.342Z,6.80
2017-12-22T03:24:05.023Z,6.80
2017-12-22T03:26:33.774Z,6.80
2017-12-22T03:29:02.510Z,6.80
2017-12-22T03:31:31.285Z,6.80
2017-12-22T03:34:02.196Z,6.80
2017-12-22T03:36:33.902Z,6.80
2017-12-22T03:39:02.591Z,6.80
2017-12-22T03:41:31.307Z,6.80
2017-12-22T03:44:00.150Z,6.80
2017-12-22T03:46:28.854Z,6.80
2017-12-22T03:48:57.583Z,6.80
2017-12-22T03:51:26.262Z,6.80
2017-12-22T03:53:54.971Z,6.80
2017-12-22T03:56:23.665Z,6.80
2017-12-22T03:58:52.366Z,6.80
2017-12-22T04:01:21.876Z,6.80
2017-12-22T04:03:51.363Z,6.80
2017-12-22T04:06:20.093Z,6.80
2017-12-22T04:08:48.795Z,6.80
2017-12-22T04:11:17.523Z,6.80
2017-12-22T04:13:46.277Z,6.80
2017-12-22T04:16:14.973Z,6.80
2017-12-22T04:18:44.310Z,6.80
2017-12-22T04:21:13.805Z,6.80
2017-12-22T05:51:41.967Z,6.70
2017-12-22T05:54:11.466Z,6.70
2017-12-22T05:56:40.190Z,6.60
2017-12-22T05:59:08.893Z,6.70
2017-12-22T06:01:38.954Z,6.70
2017-12-22T06:04:09.825Z,6.70
2017-12-22T06:06:38.567Z,6.70
2017-12-22T06:09:08.071Z,6.70
2017-12-22T06:11:36.771Z,6.70
2017-12-22T06:14:05.504Z,6.70
2017-12-22T06:16:34.223Z,6.70
2017-12-22T06:19:02.976Z,6.80
2017-12-22T06:21:33.764Z,6.80
2017-12-22T06:24:02.570Z,6.80
2017-12-22T06:26:32.624Z,6.80
2017-12-22T06:29:02.033Z,6.80
2017-12-22T06:31:31.542Z,6.80
2017-12-22T06:39:57.143Z,6.80
2017-12-22T06:42:25.846Z,6.80
2017-12-22T06:44:54.518Z,6.90
2017-12-22T06:47:23.202Z,6.90
2017-12-22T06:49:57.793Z,6.90
2017-12-22T06:52:27.131Z,6.90
2017-12-22T06:54:55.839Z,6.90
2017-12-22T06:57:24.923Z,6.90
2017-12-22T07:03:08.851Z,6.90
2017-12-22T07:05:47.691Z,6.90
2017-12-22T07:08:19.213Z,6.90
2017-12-22T07:10:47.990Z,6.90
2017-12-22T07:13:23.559Z,6.90
2017-12-22T07:28:13.692Z,6.80
2017-12-22T07:34:08.483Z,6.80
2017-12-22T07:36:37.181Z,6.90
2017-12-22T07:39:07.479Z,6.90
2017-12-22T07:41:37.548Z,6.90
2017-12-22T07:44:06.251Z,6.90
2017-12-22T07:46:34.920Z,6.90
2017-12-22T07:49:03.618Z,7.00
2017-12-22T07:51:34.522Z,7.00
2017-12-22T07:54:03.193Z,6.90
2017-12-22T07:56:32.691Z,7.00
2017-12-22T07:59:01.587Z,7.00
2017-12-22T08:01:36.711Z,7.00
2017-12-22T08:04:06.149Z,7.00
2017-12-22T08:06:36.388Z,7.00
2017-12-22T08:09:04.447Z,7.00
2017-12-22T08:11:33.138Z,7.00
2017-12-22T08:14:01.860Z,7.00
2017-12-22T08:16:30.549Z,7.00
2017-12-22T08:18:59.252Z,7.00
2017-12-22T08:21:28.773Z,7.00
2017-12-22T08:23:58.239Z,7.00
2017-12-22T08:26:26.957Z,7.00
2017-12-22T08:28:56.430Z,7.00
2017-12-22T08:31:25.123Z,7.00
2017-12-22T08:33:53.861Z,7.00
2017-12-22T08:36:22.562Z,7.10
2017-12-22T08:38:51.286Z,7.00
2017-12-22T08:41:19.982Z,7.10
2017-12-22T08:43:50.349Z,7.00
2017-12-22T08:46:19.044Z,7.10
2017-12-22T08:48:47.730Z,7.10
2017-12-22T08:51:16.446Z,7.10
2017-12-22T08:53:45.143Z,7.10
2017-12-22T08:56:13.840Z,7.00
2017-12-22T08:58:42.552Z,7.10
2017-12-22T09:01:12.015Z,7.10
2017-12-22T09:03:40.727Z,7.10
2017-12-22T09:06:09.422Z,7.10
2017-12-22T09:08:38.119Z,7.10
2017-12-22T09:11:07.590Z,7.10
2017-12-22T09:13:36.279Z,7.10
2017-12-22T09:16:05.034Z,7.00
2017-12-22T09:18:33.714Z,7.10
2017-12-22T09:21:02.409Z,7.10
2017-12-22T09:23:31.107Z,7.10
2017-12-22T09:25:59.790Z,7.10
2017-12-22T09:28:28.510Z,7.10
2017-12-22T09:30:57.190Z,7.00
2017-12-22T09:33:26.772Z,7.00
2017-12-22T09:35:55.652Z,7.00
2017-12-22T09:38:24.487Z,7.10
2017-12-22T09:40:53.185Z,7.10
2017-12-22T09:43:21.875Z,7.10
2017-12-22T09:45:50.581Z,7.10
2017-12-22T09:48:19.434Z,7.10
2017-12-22T09:50:48.105Z,7.10
2017-12-22T09:53:16.843Z,7.10
2017-12-22T09:55:46.320Z,7.10
2017-12-22T09:58:15.009Z,7.10
2017-12-22T10:00:43.708Z,7.10
2017-12-22T10:03:12.399Z,7.10
2017-12-22T10:05:41.175Z,7.10
2017-12-22T10:08:09.856Z,7.10
2017-12-22T10:10:38.581Z,7.10
2017-12-22T10:13:08.042Z,7.00
2017-12-22T10:15:36.771Z,7.00
2017-12-22T10:18:07.146Z,7.00
2017-12-22T10:20:38.901Z,7.00
2017-12-22T10:23:24.087Z,7.00
2017-12-22T10:25:53.577Z,7.00
2017-12-22T10:28:27.997Z,6.90
2017-12-22T10:31:30.336Z,7.00
2017-12-22T10:37:33.398Z,6.90
